createdAt,value
2023-03-01T00:00:47.552Z,69.95
2023-03-01T00:03:51.503Z,72.60
2023-03-01T00:06:55.020Z,77.38
2023-03-01T00:10:01.846Z,70.22
2023-03-01T00:13:06.263Z,73.93
2023-03-01T00:16:12.561Z,64.82
2023-03-01T00:19:19.586Z,69.25
2023-03-01T00:22:22.991Z,65.55
2023-03-01T00:25:27.719Z,83.25
2023-03-01T00:28:30.901Z,62.58
2023-03-01T00:31:35.332Z,61.08
2023-03-01T00:34:38.534Z,62.75
2023-03-01T00:37:42.373Z,67.72
2023-03-01T00:40:47.004Z,61.85
2023-03-01T00:43:50.341Z,59.22
2023-03-01T00:46:53.521Z,58.45
2023-03-01T00:49:56.706Z,56.08
2023-03-01T00:52:59.889Z,54.55
2023-03-01T00:56:05.981Z,55.05
2023-03-01T00:59:09.185Z,53.80
2023-03-01T01:02:12.404Z,51.70
2023-03-01T01:05:16.116Z,51.85
2023-03-01T01:08:19.423Z,52.90
2023-03-01T01:11:26.537Z,49.20
2023-03-01T01:14:29.737Z,50.35
2023-03-01T01:17:32.917Z,49.55
2023-03-01T01:20:37.664Z,52.75
2023-03-01T01:23:42.257Z,51.58
2023-03-01T01:26:47.210Z,52.67
2023-03-01T01:29:50.454Z,52.42
2023-03-01T01:32:53.692Z,50.65
2023-03-01T01:35:57.082Z,53.75
2023-03-01T01:39:00.403Z,51.88
2023-03-01T01:42:05.164Z,54.38
2023-03-01T01:45:36.287Z,54.10
2023-03-01T01:48:44.005Z,54.25
2023-03-01T01:51:52.088Z,54.47
2023-03-01T01:54:59.505Z,55.08
2023-03-01T01:58:06.442Z,54.38
2023-03-01T02:01:10.207Z,56.88
2023-03-01T02:04:13.703Z,56.35
2023-03-01T02:07:18.878Z,53.88
2023-03-01T02:10:23.180Z,57.03
2023-03-01T02:13:27.923Z,58.83
2023-03-01T02:16:32.965Z,57.70
2023-03-01T02:19:50.001Z,57.50
2023-03-01T02:22:55.983Z,56.67
2023-03-01T02:26:05.611Z,56.72
2023-03-01T02:29:10.877Z,42.80
2023-03-01T02:32:16.504Z,54.10
2023-03-01T02:35:21.523Z,53.78
2023-03-01T02:38:26.219Z,54.90
2023-03-01T02:41:32.937Z,52.67
2023-03-01T02:44:37.559Z,57.15
2023-03-01T02:47:41.070Z,54.25
2023-03-01T02:50:57.083Z,52.25
2023-03-01T02:54:12.963Z,53.88
2023-03-01T02:57:16.887Z,55.60
2023-03-01T03:03:58.966Z,54.00
2023-03-01T03:07:02.534Z,54.40
2023-03-01T03:10:08.056Z,54.72
2023-03-01T03:13:12.893Z,54.97
2023-03-01T03:16:16.347Z,56.40
2023-03-01T03:19:21.457Z,56.47
2023-03-01T03:22:24.671Z,57.08
2023-03-01T03:25:29.266Z,55.55
2023-03-01T03:28:32.753Z,54.28
2023-03-01T03:31:36.242Z,57.15
2023-03-01T03:34:40.846Z,57.63
2023-03-01T03:38:01.674Z,57.83
2023-03-01T03:41:08.190Z,58.10
2023-03-01T03:44:11.379Z,61.33
2023-03-01T03:47:14.952Z,60.17
2023-03-01T03:50:20.771Z,59.95
2023-03-01T03:53:25.131Z,59.63
2023-03-01T03:56:28.987Z,61.08
2023-03-01T03:59:32.847Z,57.53
2023-03-01T04:02:36.040Z,58.35
2023-03-01T04:05:42.177Z,59.45
2023-03-01T04:08:45.373Z,57.40
2023-03-01T04:11:48.508Z,59.85
2023-03-01T04:14:51.738Z,59.80
2023-03-01T04:17:55.770Z,57.08
2023-03-01T04:21:00.288Z,57.35
2023-03-01T04:24:04.650Z,56.05
2023-03-01T04:27:07.825Z,56.83
2023-03-01T04:30:12.250Z,58.15
2023-03-01T04:33:15.644Z,57.30
2023-03-01T04:36:21.774Z,57.60
2023-03-01T04:39:25.118Z,56.42
2023-03-01T04:42:28.351Z,54.92
2023-03-01T04:45:31.560Z,54.72
2023-03-01T04:48:34.980Z,54.17
2023-03-01T04:51:39.514Z,53.72
2023-03-01T04:54:43.301Z,54.60
2023-03-01T04:57:46.536Z,52.47
2023-03-01T05:00:49.687Z,53.63
2023-03-01T05:03:54.482Z,52.05
2023-03-01T05:06:59.786Z,50.42
2023-03-01T05:10:02.998Z,52.90
2023-03-01T05:13:07.717Z,51.75
2023-03-01T05:16:12.563Z,50.53
2023-03-01T05:19:17.276Z,53.83
2023-03-01T05:22:21.955Z,54.20
2023-03-01T05:25:25.210Z,54.72
2023-03-01T05:28:29.125Z,54.42
2023-03-01T05:31:32.524Z,52.97
2023-03-01T05:34:37.842Z,52.40
2023-03-01T05:37:43.620Z,53.97
2023-03-01T05:40:48.992Z,56.65
2023-03-01T05:43:52.208Z,56.15
2023-03-01T05:46:55.411Z,55.45
2023-03-01T05:49:58.702Z,56.97
2023-03-01T05:53:06.504Z,58.17
2023-03-01T05:56:10.036Z,60.13
2023-03-01T05:59:14.733Z,59.13
2023-03-01T06:02:18.035Z,63.47
2023-03-01T06:05:21.512Z,61.80
2023-03-01T06:08:28.178Z,58.42
2023-03-01T06:11:31.658Z,57.15
2023-03-01T06:14:35.030Z,56.97
2023-03-01T06:17:39.720Z,60.00
2023-03-01T06:20:42.945Z,58.63
2023-03-01T06:23:47.553Z,59.33
2023-03-01T06:26:50.745Z,59.22
2023-03-01T06:29:54.029Z,58.10
2023-03-01T06:33:01.822Z,57.72
2023-03-01T06:36:05.767Z,55.30
2023-03-01T06:39:10.413Z,55.05
2023-03-01T06:42:13.626Z,54.00
2023-03-01T06:45:19.100Z,55.42
2023-03-01T06:48:22.314Z,54.75
2023-03-01T06:51:26.238Z,49.05
2023-03-01T06:54:30.872Z,49.60
2023-03-01T06:57:34.134Z,49.20
2023-03-01T07:00:37.306Z,50.30
2023-03-01T07:03:40.504Z,50.33
2023-03-01T07:06:43.756Z,46.95
2023-03-01T07:09:48.803Z,48.58
2023-03-01T07:12:52.119Z,45.60
2023-03-01T07:15:55.400Z,46.80
2023-03-01T07:18:59.857Z,47.85
2023-03-01T07:22:03.094Z,45.92
2023-03-01T07:25:08.329Z,48.55
2023-03-01T07:28:11.519Z,44.58
2023-03-01T07:31:14.809Z,46.38
2023-03-01T07:34:18.035Z,45.13
2023-03-01T07:37:21.281Z,46.97
2023-03-01T07:40:26.151Z,44.92
2023-03-01T07:43:29.526Z,46.13
2023-03-01T07:46:32.942Z,54.92
2023-03-01T07:49:36.924Z,44.38
2023-03-01T07:52:40.246Z,46.20
2023-03-01T07:55:44.894Z,43.70
2023-03-01T07:58:49.904Z,47.58
2023-03-01T08:01:54.155Z,49.20
2023-03-01T08:04:57.418Z,51.83
2023-03-01T08:08:00.764Z,44.72
2023-03-01T08:11:07.570Z,42.50
2023-03-01T08:14:11.395Z,42.05
2023-03-01T08:17:16.158Z,40.03
2023-03-01T08:20:20.049Z,39.47
2023-03-01T08:23:23.361Z,38.20
2023-03-01T08:26:28.068Z,37.92
2023-03-01T08:29:32.818Z,38.13
2023-03-01T08:32:39.667Z,39.53
2023-03-01T08:35:42.975Z,37.33
2023-03-01T08:38:46.811Z,33.42
2023-03-01T08:41:51.411Z,35.15
2023-03-01T08:44:54.625Z,35.90
2023-03-01T08:47:57.806Z,28.67
2023-03-01T08:51:10.089Z,31.27
2023-03-01T08:54:15.883Z,28.08
2023-03-01T08:57:20.720Z,27.98
2023-03-01T09:00:24.451Z,29.10
2023-03-01T09:03:28.440Z,33.22
2023-03-01T09:06:34.611Z,32.15
2023-03-01T09:09:38.350Z,33.45
2023-03-01T09:12:42.960Z,33.78
2023-03-01T09:15:46.176Z,30.85
2023-03-01T09:18:52.279Z,29.90
2023-03-01T09:21:56.871Z,31.38
2023-03-01T09:25:00.118Z,28.30
2023-03-01T09:28:04.798Z,28.30
2023-03-01T09:31:08.103Z,29.58
2023-03-01T09:34:12.071Z,28.40
2023-03-01T09:37:15.982Z,30.13
2023-03-01T09:40:22.269Z,26.58
2023-03-01T09:43:33.041Z,29.10
2023-03-01T09:46:43.268Z,29.92
2023-03-01T09:49:49.735Z,28.90
2023-03-01T09:53:00.663Z,29.17
2023-03-01T09:56:08.046Z,29.02
2023-03-01T09:59:23.360Z,27.17
2023-03-01T10:02:32.903Z,25.60
2023-03-01T10:05:43.672Z,23.73
2023-03-01T10:08:54.324Z,27.00
2023-03-01T10:11:58.387Z,26.38
2023-03-01T10:15:11.528Z,26.05
2023-03-01T10:18:19.780Z,25.85
2023-03-01T10:21:23.692Z,28.73
2023-03-01T10:24:26.914Z,25.90
2023-03-01T10:27:42.046Z,26.25
2023-03-01T10:30:47.436Z,27.38
2023-03-01T10:33:55.756Z,26.27
2023-03-01T10:37:03.440Z,25.83
2023-03-01T10:40:10.361Z,24.63
2023-03-01T10:43:14.248Z,23.15
2023-03-01T10:46:31.695Z,25.02
2023-03-01T10:49:37.266Z,24.52
2023-03-01T10:52:43.360Z,24.35
2023-03-01T10:55:46.594Z,22.98
2023-03-01T10:59:01.200Z,22.80
2023-03-01T11:02:24.903Z,19.63
2023-03-01T11:05:31.393Z,22.20
2023-03-01T11:08:42.673Z,23.75
2023-03-01T11:11:46.966Z,23.92
2023-03-01T11:14:52.618Z,23.13
2023-03-01T11:18:09.294Z,23.20
2023-03-01T11:21:18.236Z,21.00
2023-03-01T11:24:22.065Z,20.15
2023-03-01T11:27:28.173Z,21.98
2023-03-01T11:30:34.394Z,22.13
2023-03-01T11:33:45.534Z,20.50
2023-03-01T11:36:54.852Z,20.67
2023-03-01T11:40:05.835Z,21.83
2023-03-01T11:43:17.682Z,20.65
2023-03-01T11:46:53.379Z,22.75
2023-03-01T11:50:18.446Z,20.60
2023-03-01T11:53:51.817Z,20.45
2023-03-01T11:56:59.628Z,20.95
2023-03-01T12:00:31.127Z,18.52
2023-03-01T12:03:56.865Z,20.73
2023-03-01T12:07:04.962Z,20.40
2023-03-01T12:10:22.587Z,20.10
2023-03-01T12:13:53.987Z,20.30
2023-03-01T12:17:24.008Z,19.52
2023-03-01T12:20:34.455Z,19.00
2023-03-01T12:24:13.404Z,19.77
2023-03-01T12:27:33.474Z,20.10
2023-03-01T12:30:51.203Z,20.42
2023-03-01T12:34:00.654Z,20.98
2023-03-01T12:37:31.704Z,15.00
2023-03-01T12:41:08.672Z,20.35
2023-03-01T12:44:40.079Z,20.23
2023-03-01T12:47:55.705Z,19.88
2023-03-01T12:51:04.934Z,21.00
2023-03-01T12:54:17.701Z,20.98
2023-03-01T12:57:30.231Z,18.98
2023-03-01T13:00:37.800Z,18.73
2023-03-01T13:04:08.440Z,18.65
2023-03-01T13:07:23.434Z,18.38
2023-03-01T13:10:32.699Z,19.58
2023-03-01T13:13:37.409Z,18.67
2023-03-01T13:16:46.089Z,17.98
2023-03-01T13:19:59.664Z,17.92
2023-03-01T13:23:10.669Z,18.13
2023-03-01T13:26:19.613Z,20.52
2023-03-01T13:29:29.382Z,19.35
2023-03-01T13:32:49.809Z,20.42
2023-03-01T13:35:53.622Z,18.38
2023-03-01T13:38:59.442Z,19.05
2023-03-01T13:42:03.417Z,19.45
2023-03-01T13:45:25.444Z,19.48
2023-03-01T13:48:31.232Z,17.58
2023-03-01T13:51:35.167Z,18.70
2023-03-01T13:54:41.233Z,18.00
2023-03-01T13:57:47.684Z,17.42
2023-03-01T14:00:58.864Z,18.05
2023-03-01T14:04:03.258Z,18.25
2023-03-01T14:07:14.585Z,18.00
2023-03-01T14:10:18.835Z,18.60
2023-03-01T14:13:33.539Z,18.80
2023-03-01T14:16:46.956Z,19.08
2023-03-01T14:19:57.977Z,19.08
2023-03-01T14:23:04.631Z,19.35
2023-03-01T14:26:10.254Z,20.10
2023-03-01T14:29:28.361Z,19.25
2023-03-01T14:32:34.458Z,18.75
2023-03-01T14:35:39.955Z,19.02
2023-03-01T14:38:45.217Z,18.95
2023-03-01T14:41:48.866Z,18.50
2023-03-01T14:44:54.418Z,19.70
2023-03-01T14:48:02.674Z,20.45
2023-03-01T14:51:08.043Z,20.63
2023-03-01T14:54:24.272Z,70.95
2023-03-01T14:57:28.794Z,23.13
2023-03-01T15:00:35.000Z,23.92
2023-03-01T15:03:43.968Z,38.03
2023-03-01T15:06:48.261Z,26.17
2023-03-01T15:09:51.713Z,23.75
2023-03-01T15:12:55.084Z,23.25
2023-03-01T15:16:12.471Z,23.75
2023-03-01T15:19:21.219Z,23.73
2023-03-01T15:22:27.807Z,24.25
2023-03-01T15:25:32.802Z,27.60
2023-03-01T15:28:41.767Z,32.47
2023-03-01T15:31:45.435Z,61.17
2023-03-01T15:34:50.917Z,54.60
2023-03-01T15:37:54.223Z,47.10
2023-03-01T15:40:58.865Z,52.33
2023-03-01T15:44:16.758Z,62.67
2023-03-01T15:47:32.585Z,73.28
2023-03-01T15:50:40.980Z,61.53
2023-03-01T15:53:54.645Z,49.05
2023-03-01T15:56:58.592Z,40.05
2023-03-01T16:00:02.004Z,42.35
2023-03-01T16:03:10.013Z,48.63
2023-03-01T16:06:15.722Z,56.92
2023-03-01T16:09:19.205Z,63.70
2023-03-01T16:12:23.229Z,76.22
2023-03-01T16:15:32.993Z,91.35
2023-03-01T16:18:36.462Z,79.22
2023-03-01T16:21:41.313Z,78.47
2023-03-01T16:24:44.534Z,63.67
2023-03-01T16:27:52.602Z,64.53
2023-03-01T16:30:57.871Z,64.63
2023-03-01T16:34:01.968Z,69.80
2023-03-01T16:37:06.754Z,71.90
2023-03-01T16:40:20.139Z,78.85
2023-03-01T16:43:23.490Z,86.88
2023-03-01T16:46:28.591Z,111.80
2023-03-01T16:49:31.772Z,132.13
2023-03-01T16:52:37.062Z,133.45
2023-03-01T16:55:46.202Z,143.88
2023-03-01T16:58:50.001Z,145.15
2023-03-01T17:01:53.398Z,147.82
2023-03-01T17:04:57.830Z,146.00
2023-03-01T17:08:02.772Z,153.45
2023-03-01T17:11:08.642Z,141.48
2023-03-01T17:14:12.068Z,140.25
2023-03-01T17:17:15.521Z,172.07
2023-03-01T17:20:19.302Z,176.35
2023-03-01T17:23:24.131Z,163.60
2023-03-01T17:26:29.231Z,186.40
2023-03-01T17:29:32.952Z,191.00
2023-03-01T17:32:36.449Z,189.80
2023-03-01T17:35:41.042Z,172.85
2023-03-01T17:38:47.347Z,200.90
2023-03-01T17:41:50.652Z,129.23
2023-03-01T17:44:53.829Z,132.25
2023-03-01T17:47:57.253Z,148.02
2023-03-01T17:51:00.747Z,145.10
2023-03-01T17:54:08.055Z,145.00
2023-03-01T17:57:11.460Z,144.80
2023-03-01T18:00:17.298Z,136.52
2023-03-01T18:03:21.673Z,146.75
2023-03-01T18:06:26.743Z,150.98
2023-03-01T18:09:31.765Z,143.43
2023-03-01T18:12:35.284Z,139.70
2023-03-01T18:15:39.006Z,138.10
2023-03-01T18:18:45.072Z,134.65
2023-03-01T18:21:49.400Z,128.13
2023-03-01T18:24:54.117Z,124.25
2023-03-01T18:27:57.427Z,123.38
2023-03-01T18:31:02.710Z,128.85
2023-03-01T18:34:06.088Z,129.35
2023-03-01T18:37:10.139Z,131.45
2023-03-01T18:40:15.054Z,126.07
2023-03-01T18:43:18.314Z,128.73
2023-03-01T18:46:21.963Z,134.40
2023-03-01T18:49:26.160Z,125.03
2023-03-01T18:52:32.969Z,127.05
2023-03-01T18:55:40.657Z,122.53
2023-03-01T18:58:44.260Z,122.20
2023-03-01T19:03:01.341Z,119.40
2023-03-01T19:06:05.250Z,121.35
2023-03-01T19:09:11.353Z,150.93
2023-03-01T19:12:16.037Z,160.50
2023-03-01T19:15:19.660Z,168.85
2023-03-01T19:18:23.040Z,164.32
2023-03-01T19:21:27.317Z,166.20
2023-03-01T19:24:31.559Z,144.40
2023-03-01T19:27:36.587Z,139.73
2023-03-01T19:30:40.079Z,140.57
2023-03-01T19:33:43.334Z,139.77
2023-03-01T19:36:48.549Z,140.30
2023-03-01T19:39:51.953Z,140.85
2023-03-01T19:42:56.597Z,138.15
2023-03-01T19:45:59.993Z,143.88
2023-03-01T19:49:06.542Z,146.75
2023-03-01T19:52:10.131Z,150.25
2023-03-01T19:55:14.838Z,157.50
2023-03-01T19:58:20.209Z,158.18
2023-03-01T20:01:24.259Z,160.15
2023-03-01T20:04:27.603Z,159.73
2023-03-01T20:07:31.504Z,167.45
2023-03-01T20:10:35.485Z,155.90
2023-03-01T20:13:40.866Z,155.50
2023-03-01T20:16:53.545Z,151.93
2023-03-01T20:19:59.436Z,151.48
2023-03-01T20:23:04.007Z,151.05
2023-03-01T20:26:09.884Z,147.43
2023-03-01T20:29:17.172Z,146.13
2023-03-01T20:32:20.777Z,143.70
2023-03-01T20:35:24.543Z,138.32
2023-03-01T20:38:30.147Z,137.82
2023-03-01T20:41:35.375Z,131.57
2023-03-01T20:44:44.408Z,133.70
2023-03-01T20:47:47.759Z,129.88
2023-03-01T20:50:51.409Z,120.70
2023-03-01T20:53:56.973Z,111.47
2023-03-01T20:57:01.546Z,112.75
2023-03-01T21:00:08.658Z,111.22
2023-03-01T21:03:12.230Z,110.10
2023-03-01T21:06:20.914Z,109.75
2023-03-01T21:09:24.196Z,103.88
2023-03-01T21:12:27.651Z,111.85
2023-03-01T21:15:34.964Z,105.57
2023-03-01T21:18:39.084Z,103.85
2023-03-01T21:21:42.599Z,100.57
2023-03-01T21:24:46.038Z,103.13
2023-03-01T21:27:49.312Z,107.75
2023-03-01T21:30:54.352Z,106.60
2023-03-01T21:33:59.897Z,116.90
2023-03-01T21:37:03.484Z,115.07
2023-03-01T21:40:08.986Z,107.05
2023-03-01T21:43:12.177Z,108.43
2023-03-01T21:46:19.174Z,101.20
2023-03-01T21:49:23.044Z,103.18
2023-03-01T21:52:26.290Z,99.82
2023-03-01T21:55:29.525Z,100.95
2023-03-01T21:58:33.172Z,102.05
2023-03-01T22:01:38.016Z,99.00
2023-03-01T22:04:41.340Z,100.63
2023-03-01T22:07:44.591Z,100.15
2023-03-01T22:10:47.792Z,100.80
2023-03-01T22:13:52.548Z,115.90
2023-03-01T22:16:57.301Z,95.20
2023-03-01T22:20:00.825Z,95.63
2023-03-01T22:23:04.156Z,94.13
2023-03-01T22:26:08.250Z,94.40
2023-03-01T22:29:14.132Z,96.05
2023-03-01T22:32:18.896Z,92.90
2023-03-01T22:35:22.256Z,94.07
2023-03-01T22:38:25.584Z,90.15
2023-03-01T22:41:29.776Z,92.30
2023-03-01T22:44:33.469Z,87.22
2023-03-01T22:47:38.774Z,87.68
2023-03-01T22:50:43.861Z,89.32
2023-03-01T22:53:47.321Z,86.03
2023-03-01T22:56:50.988Z,83.45
2023-03-01T22:59:54.264Z,81.40
2023-03-01T23:02:58.963Z,79.50
2023-03-01T23:06:02.249Z,79.38
2023-03-01T23:09:06.821Z,78.18
2023-03-01T23:12:10.904Z,75.78
2023-03-01T23:15:14.538Z,75.90
2023-03-01T23:18:19.120Z,76.18
2023-03-01T23:21:22.745Z,74.95
2023-03-01T23:24:31.373Z,77.60
2023-03-01T23:27:37.837Z,75.60
2023-03-01T23:30:40.986Z,78.35
2023-03-01T23:33:47.199Z,83.05
2023-03-01T23:36:53.205Z,83.15
2023-03-01T23:39:56.377Z,80.53
2023-03-01T23:42:59.536Z,80.03
2023-03-01T23:46:02.802Z,82.68
2023-03-01T23:49:07.426Z,76.93
2023-03-01T23:52:15.242Z,76.07
2023-03-01T23:55:18.868Z,78.40
2023-03-01T23:58:28.225Z,83.95
